Time;durP1;ratioP1;P1;durP2;ratioP2;P2;SDS_P1;SDS_P2;PMS_P1;PMS_P2;Temp;Humidity;BMP_temperature;BMP_pressure;BME280_temperature;BME280_humidity;BME280_pressure;Samples;Min_cycle;Max_cycle;Signal;HPM_P1;HPM_P2
2023/07/10 00:01:13;;;;;;;4.47;3.83;;;19.10;99.90;;;;;;5035455;28;20066;-75
2023/07/10 00:03:39;;;;;;;4.78;4.10;;;19.00;99.90;;;;;;5035344;28;20036;-75
2023/07/10 00:06:09;;;;;;;5.50;3.50;;;19.00;99.90;;;;;;5035062;28;20481;-75
2023/07/10 00:08:35;;;;;;;6.50;4.20;;;19.00;99.90;;;;;;5033972;28;20029;-76
2023/07/10 00:11:01;;;;;;;7.13;4.32;;;19.00;99.90;;;;;;5035115;28;20022;-75
2023/07/10 00:13:29;;;;;;;3.90;3.55;;;18.90;99.90;;;;;;5035022;28;20021;-75
2023/07/10 00:15:55;;;;;;;4.18;3.55;;;18.80;99.90;;;;;;5033780;28;20571;-76
2023/07/10 00:18:22;;;;;;;4.97;3.72;;;18.80;99.90;;;;;;5035027;28;20022;-76
2023/07/10 00:20:49;;;;;;;4.38;3.75;;;18.80;99.90;;;;;;5040110;22;20070;-76
2023/07/10 00:23:16;;;;;;;5.05;4.22;;;18.90;99.90;;;;;;5014979;28;20089;-75
2023/07/10 00:25:42;;;;;;;5.97;3.72;;;18.50;99.90;;;;;;5014771;28;20033;-76
2023/07/10 00:28:16;;;;;;;4.75;3.65;;;18.70;99.90;;;;;;5014614;28;20030;-75
2023/07/10 00:30:45;;;;;;;4.77;3.93;;;18.70;99.90;;;;;;5030124;28;20053;-75
2023/07/10 00:33:12;;;;;;;6.30;3.55;;;18.80;99.90;;;;;;5014837;28;20259;-76
2023/07/10 00:35:38;;;;;;;6.28;3.70;;;18.70;99.90;;;;;;5014217;28;20037;-75
2023/07/10 00:38:30;;;;;;;4.45;3.38;;;18.50;99.90;;;;;;5014609;28;20468;-75
2023/07/10 00:40:58;;;;;;;5.57;3.83;;;18.50;99.90;;;;;;5014788;28;20072;-76
2023/07/10 00:43:37;;;;;;;4.38;3.95;;;18.60;99.90;;;;;;5014779;28;20158;-75
2023/07/10 00:46:19;;;;;;;3.83;3.47;;;18.50;99.90;;;;;;5014098;28;20022;-76
2023/07/10 00:48:53;;;;;;;6.97;4.25;;;18.60;99.90;;;;;;5014574;28;20084;-76
2023/07/10 00:51:30;;;;;;;7.70;4.00;;;18.50;99.90;;;;;;5029569;28;20018;-76
2023/07/10 00:53:57;;;;;;;7.13;4.50;;;18.50;99.90;;;;;;5014389;28;20092;-76
2023/07/10 00:56:28;;;;;;;5.57;3.58;;;18.30;99.90;;;;;;5029467;28;20026;-75
2023/07/10 00:58:54;;;;;;;5.20;4.47;;;18.30;99.90;;;;;;5029367;28;20108;-76
2023/07/10 01:01:26;;;;;;;4.88;3.90;;;18.30;99.90;;;;;;5014332;28;20061;-76
2023/07/10 01:03:53;;;;;;;6.35;4.50;;;18.20;99.90;;;;;;5014250;28;20022;-74
2023/07/10 01:06:30;;;;;;;8.20;4.70;;;18.20;99.90;;;;;;5014148;28;20028;-75
2023/07/10 01:09:06;;;;;;;5.30;4.10;;;18.10;99.90;;;;;;5013497;28;20033;-75
2023/07/10 01:11:34;;;;;;;4.40;3.75;;;18.10;99.90;;;;;;5029384;28;20479;-76
2023/07/10 01:14:02;;;;;;;8.05;4.45;;;18.10;99.90;;;;;;5014122;28;20034;-75
2023/07/10 01:16:30;;;;;;;5.15;4.13;;;18.10;99.90;;;;;;5013954;28;20049;-74
2023/07/10 01:18:57;;;;;;;5.13;4.63;;;18.10;99.90;;;;;;5013763;28;20101;-75
2023/07/10 01:21:32;;;;;;;7.15;4.40;;;18.20;99.90;;;;;;5013733;28;20421;-75
2023/07/10 01:24:04;;;;;;;5.72;4.57;;;18.20;99.90;;;;;;5014019;28;20021;-76
2023/07/10 01:26:30;;;;;;;5.03;4.15;;;18.30;99.90;;;;;;5013781;28;20033;-76
2023/07/10 01:28:57;;;;;;;8.48;4.70;;;18.20;99.90;;;;;;5013859;28;20549;-76
2023/07/10 01:31:25;;;;;;;5.45;4.70;;;18.30;99.90;;;;;;5013795;28;20425;-76
2023/07/10 01:33:57;;;;;;;6.13;4.85;;;18.20;99.90;;;;;;5013726;28;20665;-75
2023/07/10 01:36:27;;;;;;;7.90;4.75;;;18.20;99.90;;;;;;5013592;28;20029;-76
2023/07/10 01:39:24;;;;;;;6.47;4.38;;;18.10;99.90;;;;;;5028893;28;20021;-76
2023/07/10 01:41:49;;;;;;;5.10;4.60;;;18.20;99.90;;;;;;5013356;28;20626;-75
2023/07/10 01:44:36;;;;;;;9.13;4.88;;;18.20;99.90;;;;;;5028276;28;20041;-75
2023/07/10 01:47:05;;;;;;;7.18;4.90;;;18.20;99.90;;;;;;5013507;28;20022;-76
2023/07/10 01:49:30;;;;;;;7.35;5.43;;;18.20;99.90;;;;;;5012135;28;20386;-75
2023/07/10 01:51:59;;;;;;;6.35;4.40;;;18.20;99.90;;;;;;5013160;28;20026;-75
2023/07/10 01:54:25;;;;;;;5.07;4.57;;;18.20;99.90;;;;;;5013182;28;20494;-75
2023/07/10 01:56:51;;;;;;;6.00;4.82;;;18.10;99.90;;;;;;5028365;28;20030;-75
2023/07/10 01:59:17;;;;;;;7.35;4.63;;;18.10;99.90;;;;;;5013138;28;20033;-75
2023/07/10 02:01:44;;;;;;;6.82;4.93;;;18.10;99.90;;;;;;5013224;28;20418;-75
2023/07/10 02:04:10;;;;;;;7.20;4.65;;;18.00;99.90;;;;;;5013303;28;20103;-75
2023/07/10 02:06:37;;;;;;;4.90;4.40;;;17.80;99.90;;;;;;5013032;28;20030;-75
2023/07/10 02:09:04;;;;;;;8.60;4.72;;;17.80;99.90;;;;;;5012971;28;20083;-76
2023/07/10 02:11:30;;;;;;;7.50;4.50;;;17.70;99.90;;;;;;5013077;28;20069;-74
2023/07/10 02:13:55;;;;;;;5.32;4.63;;;17.70;99.90;;;;;;5012957;28;20030;-75
2023/07/10 02:16:21;;;;;;;5.60;4.70;;;17.80;99.90;;;;;;5012809;28;20025;-74
2023/07/10 02:18:47;;;;;;;6.95;5.13;;;17.70;99.90;;;;;;5011563;28;20022;-76
2023/07/10 02:21:12;;;;;;;7.00;5.05;;;17.80;99.90;;;;;;5011861;28;20038;-75
2023/07/10 02:23:39;;;;;;;6.63;5.03;;;17.80;99.90;;;;;;5028000;28;20494;-75
2023/07/10 02:26:05;;;;;;;6.60;4.75;;;17.70;99.90;;;;;;5011469;28;20025;-75
2023/07/10 02:28:31;;;;;;;6.30;4.95;;;17.70;99.90;;;;;;5027773;28;20022;-75
2023/07/10 02:30:56;;;;;;;7.95;5.00;;;17.70;99.90;;;;;;5012759;28;20032;-76
2023/07/10 02:33:22;;;;;;;7.10;5.38;;;17.60;99.90;;;;;;5012747;28;20022;-75
2023/07/10 02:35:48;;;;;;;6.93;4.85;;;17.60;99.90;;;;;;5027739;28;20403;-75
2023/07/10 02:38:15;;;;;;;6.38;5.10;;;17.70;99.90;;;;;;5011080;28;20030;-74
2023/07/10 02:40:42;;;;;;;6.45;4.63;;;17.70;99.90;;;;;;5012258;28;20022;-75
2023/07/10 02:43:08;;;;;;;8.55;5.72;;;17.60;99.90;;;;;;5012660;28;20022;-76
2023/07/10 02:45:37;;;;;;;9.68;4.88;;;17.60;99.90;;;;;;5011690;28;20088;-76
2023/07/10 02:48:03;;;;;;;6.45;4.97;;;17.50;99.90;;;;;;5012318;28;20118;-77
2023/07/10 02:50:28;;;;;;;5.63;4.75;;;17.50;99.90;;;;;;5012352;28;20538;-76
2023/07/10 02:52:54;;;;;;;7.57;5.18;;;17.40;99.90;;;;;;5010938;28;20032;-77
2023/07/10 02:55:20;;;;;;;7.25;5.00;;;17.40;99.90;;;;;;5012106;28;20471;-77
2023/07/10 02:57:46;;;;;;;6.55;5.63;;;17.40;99.90;;;;;;5012253;28;20053;-78
2023/07/10 03:00:12;;;;;;;7.65;5.32;;;17.40;99.90;;;;;;5012182;28;20406;-76
2023/07/10 03:02:37;;;;;;;5.70;4.85;;;17.40;99.90;;;;;;5011407;28;20022;-76
2023/07/10 03:05:04;;;;;;;6.90;5.15;;;17.30;99.90;;;;;;5011351;28;20391;-77
2023/07/10 03:07:31;;;;;;;7.55;5.15;;;17.40;99.90;;;;;;5026962;28;20120;-77
2023/07/10 03:09:56;;;;;;;5.10;4.60;;;17.50;99.90;;;;;;5011757;28;20026;-77
2023/07/10 03:12:22;;;;;;;9.75;5.30;;;17.60;99.90;;;;;;5011967;28;20067;-77
2023/07/10 03:14:49;;;;;;;6.30;5.22;;;17.50;99.90;;;;;;5010652;28;20121;-77
2023/07/10 03:17:15;;;;;;;7.00;5.57;;;17.60;99.90;;;;;;5011596;28;20540;-77
2023/07/10 03:19:41;;;;;;;10.02;4.85;;;17.60;99.90;;;;;;5011626;28;20038;-76
2023/07/10 03:22:06;;;;;;;7.05;5.25;;;17.60;99.90;;;;;;5011737;28;20475;-77
2023/07/10 03:24:32;;;;;;;6.22;4.32;;;17.50;99.90;;;;;;5011777;28;20037;-78
2023/07/10 03:26:58;;;;;;;8.48;5.32;;;17.60;99.90;;;;;;5011805;28;20030;-76
2023/07/10 03:29:23;;;;;;;6.18;4.72;;;17.60;99.90;;;;;;5011624;28;20435;-77
2023/07/10 03:31:49;;;;;;;5.35;4.68;;;17.70;99.90;;;;;;5012102;28;20029;-78
2023/07/10 03:34:16;;;;;;;7.30;5.07;;;17.70;99.90;;;;;;5031140;28;20053;-77
2023/07/10 03:36:42;;;;;;;6.78;5.13;;;17.70;99.90;;;;;;5015537;28;20056;-77
2023/07/10 03:39:08;;;;;;;7.88;5.35;;;17.70;99.90;;;;;;5015850;28;20026;-77
2023/07/10 03:41:35;;;;;;;6.38;4.47;;;17.60;99.90;;;;;;5015610;28;20028;-77
2023/07/10 03:44:01;;;;;;;5.03;4.45;;;17.60;99.90;;;;;;5015947;28;20034;-76
2023/07/10 03:46:26;;;;;;;5.47;4.78;;;17.60;99.90;;;;;;5015546;28;20029;-77
2023/07/10 03:48:52;;;;;;;8.90;5.50;;;17.60;99.90;;;;;;5015713;28;20375;-77
2023/07/10 03:51:18;;;;;;;8.55;5.30;;;17.60;99.90;;;;;;5030853;28;20526;-77
2023/07/10 03:53:47;;;;;;;6.75;5.20;;;17.70;99.90;;;;;;5030729;28;20026;-77
2023/07/10 03:56:13;;;;;;;6.68;5.03;;;17.70;99.90;;;;;;5015382;28;20032;-77
2023/07/10 03:58:41;;;;;;;6.30;4.38;;;17.80;99.90;;;;;;5015341;28;20113;-77
2023/07/10 04:01:07;;;;;;;8.07;5.63;;;17.90;99.90;;;;;;5014016;28;20386;-77
2023/07/10 04:03:34;;;;;;;8.73;6.25;;;17.90;99.90;;;;;;5015474;28;20025;-77
2023/07/10 04:06:01;;;;;;;6.97;5.03;;;18.00;99.90;;;;;;5015126;28;20056;-78
2023/07/10 04:08:30;;;;;;;5.10;4.60;;;18.00;99.90;;;;;;5015182;28;20029;-76
2023/07/10 04:10:59;;;;;;;6.35;4.88;;;18.00;99.90;;;;;;5030472;28;20033;-77
2023/07/10 04:13:25;;;;;;;3.83;3.13;;;18.10;99.90;;;;;;5015132;28;20511;-76
2023/07/10 04:16:01;;;;;;;6.57;5.03;;;18.40;99.90;;;;;;5015383;28;20061;-75
2023/07/10 04:18:32;;;;;;;6.85;5.35;;;19.50;99.90;;;;;;5014898;28;20454;-76
2023/07/10 04:20:59;;;;;;;7.95;5.10;;;20.30;99.90;;;;;;5015174;28;20061;-75
2023/07/10 04:23:25;;;;;;;5.13;4.63;;;20.60;99.90;;;;;;5014830;28;20030;-76
2023/07/10 04:25:51;;;;;;;8.48;4.55;;;20.70;99.90;;;;;;5015031;28;20041;-76
2023/07/10 04:28:17;;;;;;;6.18;3.97;;;20.90;99.90;;;;;;5015059;28;20037;-76
2023/07/10 04:30:44;;;;;;;8.95;4.40;;;20.80;99.90;;;;;;5015033;28;20037;-75
2023/07/10 04:33:11;;;;;;;5.55;4.18;;;20.60;99.90;;;;;;5013707;28;20030;-76
2023/07/10 04:35:39;;;;;;;4.50;4.10;;;20.80;99.90;;;;;;5014813;28;20018;-76
2023/07/10 04:38:05;;;;;;;5.60;4.05;;;21.00;99.90;;;;;;5013634;28;20076;-76
2023/07/10 04:40:30;;;;;;;7.35;4.95;;;20.90;99.90;;;;;;5014846;28;20033;-76
2023/07/10 04:42:56;;;;;;;9.48;5.32;;;20.80;99.90;;;;;;5013462;28;20018;-76
2023/07/10 04:45:22;;;;;;;9.93;6.22;;;20.70;99.90;;;;;;5014684;28;20037;-76
2023/07/10 04:47:48;;;;;;;11.73;5.85;;;20.80;99.90;;;;;;5013507;28;20026;-76
2023/07/10 04:50:13;;;;;;;5.68;5.03;;;20.70;99.90;;;;;;5014632;28;20113;-75
2023/07/10 04:52:39;;;;;;;7.35;4.70;;;20.90;99.90;;;;;;5014751;28;20064;-76
2023/07/10 04:55:05;;;;;;;5.68;4.10;;;21.10;99.90;;;;;;5014487;28;20026;-76
2023/07/10 04:57:31;;;;;;;9.15;5.22;;;21.10;99.90;;;;;;5014540;28;20542;-76
2023/07/10 04:59:56;;;;;;;5.60;4.97;;;21.10;99.90;;;;;;5014576;28;20018;-76
2023/07/10 05:02:22;;;;;;;5.90;5.30;;;21.10;99.90;;;;;;5014632;28;20056;-76
2023/07/10 05:04:47;;;;;;;7.90;5.57;;;21.20;99.90;;;;;;5014366;28;20030;-76
2023/07/10 05:07:13;;;;;;;9.65;5.72;;;21.20;99.90;;;;;;5014389;28;20044;-77
2023/07/10 05:09:39;;;;;;;10.55;4.63;;;21.10;99.90;;;;;;5014328;28;20030;-76
2023/07/10 05:12:05;;;;;;;12.25;5.20;;;21.30;99.90;;;;;;5014425;28;20022;-76
2023/07/10 05:14:31;;;;;;;6.70;4.50;;;21.50;99.90;;;;;;5014278;28;20056;-76
2023/07/10 05:16:56;;;;;;;13.48;5.28;;;21.70;99.90;;;;;;5014476;28;20475;-76
2023/07/10 05:19:22;;;;;;;5.55;4.80;;;21.70;99.90;;;;;;5013916;28;20022;-76
2023/07/10 05:21:48;;;;;;;5.72;5.10;;;21.80;99.90;;;;;;5014360;28;20037;-76
2023/07/10 05:24:13;;;;;;;6.22;5.25;;;21.90;99.90;;;;;;5012914;28;20033;-76
2023/07/10 05:26:39;;;;;;;10.68;4.95;;;22.00;99.90;;;;;;5013922;28;20030;-77
2023/07/10 05:29:05;;;;;;;5.82;4.05;;;22.00;99.90;;;;;;5012675;28;20499;-77
2023/07/10 05:31:31;;;;;;;5.95;4.65;;;21.80;99.90;;;;;;5012815;28;20088;-76
2023/07/10 05:33:56;;;;;;;6.30;5.10;;;21.90;99.90;;;;;;5014294;28;20443;-77
2023/07/10 05:36:22;;;;;;;6.40;4.15;;;21.80;99.90;;;;;;5012519;28;20080;-77
2023/07/10 05:38:48;;;;;;;4.88;4.10;;;21.90;99.90;;;;;;5013893;28;20022;-77
2023/07/10 05:41:23;;;;;;;5.60;3.97;;;22.30;99.90;;;;;;5013620;28;20099;-77
2023/07/10 05:43:48;;;;;;;8.68;4.80;;;22.30;99.90;;;;;;5014079;28;20160;-77
2023/07/10 05:46:15;;;;;;;8.15;4.38;;;22.50;99.90;;;;;;5013666;28;20705;-77
2023/07/10 05:48:41;;;;;;;6.93;4.35;;;22.80;99.90;;;;;;5013520;28;20092;-76
2023/07/10 05:51:06;;;;;;;4.97;4.47;;;23.00;99.90;;;;;;5013345;28;20457;-76
2023/07/10 05:53:35;;;;;;;4.72;4.13;;;23.20;99.90;;;;;;5013417;28;20400;-76
2023/07/10 05:56:02;;;;;;;6.57;4.28;;;23.30;99.90;;;;;;5012883;28;20096;-75
2023/07/10 05:58:29;;;;;;;5.70;4.50;;;23.40;99.90;;;;;;5013246;28;20022;-76
2023/07/10 06:00:58;;;;;;;7.03;3.97;;;23.30;99.90;;;;;;5013387;28;20036;-76
2023/07/10 06:03:25;;;;;;;4.15;3.55;;;23.60;99.90;;;;;;5013214;28;20101;-76
2023/07/10 06:05:56;;;;;;;5.80;3.78;;;23.90;99.90;;;;;;5013401;28;20075;-77
2023/07/10 06:08:23;;;;;;;5.18;3.95;;;23.80;99.90;;;;;;5013136;28;20097;-78
2023/07/10 06:10:49;;;;;;;5.78;5.15;;;23.90;99.90;;;;;;5013316;28;20022;-77
2023/07/10 06:13:15;;;;;;;4.47;3.75;;;24.00;99.90;;;;;;5013328;28;20026;-77
2023/07/10 06:15:42;;;;;;;5.35;4.70;;;24.10;99.90;;;;;;5011926;28;20406;-78
2023/07/10 06:18:08;;;;;;;4.75;4.07;;;24.00;99.90;;;;;;5011392;28;20018;-78
2023/07/10 06:20:34;;;;;;;4.97;3.88;;;24.10;99.90;;;;;;5040346;23;20160;-76
2023/07/10 06:22:59;;;;;;;4.32;3.80;;;24.20;99.90;;;;;;5032940;28;20049;-76
2023/07/10 06:25:25;;;;;;;7.63;4.68;;;24.40;99.90;;;;;;5031461;28;20120;-76
2023/07/10 06:27:50;;;;;;;6.22;4.65;;;24.60;99.90;;;;;;5032628;28;20051;-74
2023/07/10 06:30:16;;;;;;;5.45;4.95;;;24.70;99.90;;;;;;5031032;28;20034;-77
2023/07/10 06:32:42;;;;;;;7.07;5.07;;;24.70;99.90;;;;;;5032676;28;20441;-76
2023/07/10 06:35:12;;;;;;;9.02;4.90;;;24.70;99.90;;;;;;5031051;28;20036;-76
2023/07/10 06:37:42;;;;;;;5.07;4.53;;;24.90;99.90;;;;;;5032572;28;20584;-76
2023/07/10 06:40:14;;;;;;;5.93;5.32;;;25.10;99.90;;;;;;5030757;28;20060;-76
2023/07/10 06:42:41;;;;;;;9.75;5.15;;;25.00;99.90;;;;;;5031452;28;20483;-76
2023/07/10 06:45:09;;;;;;;15.75;5.18;;;25.20;99.90;;;;;;5032906;28;20478;-77
2023/07/10 06:47:40;;;;;;;5.20;4.28;;;25.50;99.90;;;;;;5032295;28;20033;-75
2023/07/10 06:50:07;;;;;;;7.68;4.22;;;25.50;99.90;;;;;;5032822;28;20029;-77
2023/07/10 06:52:36;;;;;;;11.70;4.82;;;25.70;99.90;;;;;;5031141;28;20026;-77
2023/07/10 06:55:02;;;;;;;5.45;4.22;;;25.90;99.90;;;;;;5030842;28;20034;-76
2023/07/10 06:57:28;;;;;;;6.78;4.88;;;26.00;99.90;;;;;;5032127;28;20032;-75
2023/07/10 06:59:53;;;;;;;5.75;4.32;;;26.00;99.90;;;;;;5030991;28;20022;-76
2023/07/10 07:02:19;;;;;;;6.50;4.43;;;26.10;99.90;;;;;;5031107;28;20014;-76
2023/07/10 07:04:44;;;;;;;6.80;4.10;;;26.40;99.90;;;;;;5032115;28;20053;-76
2023/07/10 07:07:10;;;;;;;5.22;4.57;;;26.60;99.90;;;;;;5031586;28;20064;-76
2023/07/10 07:09:36;;;;;;;7.57;5.22;;;26.70;99.90;;;;;;5030012;28;20028;-76
2023/07/10 07:12:01;;;;;;;11.50;4.70;;;26.50;99.90;;;;;;5030935;28;20033;-76
2023/07/10 07:14:27;;;;;;;11.13;5.38;;;26.90;99.90;;;;;;5032297;28;20179;-77
2023/07/10 07:16:54;;;;;;;5.90;4.47;;;27.20;99.90;;;;;;5031802;28;20037;-76
2023/07/10 07:19:20;;;;;;;5.22;4.45;;;27.40;99.90;;;;;;5031994;28;20026;-76
2023/07/10 07:21:45;;;;;;;4.40;3.78;;;27.70;99.90;;;;;;5031731;28;20035;-76
2023/07/10 07:24:11;;;;;;;4.97;4.47;;;27.80;99.90;;;;;;5030761;28;20121;-77
2023/07/10 07:26:37;;;;;;;5.18;3.78;;;27.80;99.90;;;;;;5030552;28;20057;-75
2023/07/10 07:29:02;;;;;;;5.90;4.22;;;27.80;99.90;;;;;;5030908;28;20025;-74
2023/07/10 07:31:28;;;;;;;6.10;4.13;;;28.10;99.90;;;;;;5032187;28;20041;-75
2023/07/10 07:33:54;;;;;;;5.50;4.50;;;28.20;99.90;;;;;;5031737;28;20025;-74
2023/07/10 07:36:21;;;;;;;4.70;4.30;;;28.20;99.90;;;;;;5032020;28;20425;-77
2023/07/10 07:38:46;;;;;;;4.35;3.95;;;28.50;99.90;;;;;;5032179;28;20032;-75
2023/07/10 07:41:13;;;;;;;5.53;4.00;;;28.50;99.90;;;;;;5031994;28;20017;-73
2023/07/10 07:43:38;;;;;;;7.95;3.88;;;28.80;99.90;;;;;;5031101;28;20018;-77
2023/07/10 07:46:04;;;;;;;4.15;3.75;;;28.90;99.90;;;;;;5032573;28;20039;-77
2023/07/10 07:48:29;;;;;;;4.05;3.58;;;28.90;99.90;;;;;;5032332;28;20100;-76
2023/07/10 07:50:56;;;;;;;5.05;4.00;;;28.90;99.90;;;;;;5032770;28;20021;-76
2023/07/10 07:53:22;;;;;;;7.88;4.18;;;29.20;99.90;;;;;;5032930;28;20115;-77
2023/07/10 07:55:48;;;;;;;5.43;3.70;;;29.50;99.90;;;;;;5032275;28;20092;-78
2023/07/10 07:58:14;;;;;;;8.50;3.90;;;29.80;99.90;;;;;;5025652;28;20021;-78
2023/07/10 08:00:40;;;;;;;4.80;3.55;;;30.00;99.90;;;;;;5032890;28;20109;-78
2023/07/10 08:03:11;;;;;;;5.18;3.58;;;30.10;99.90;;;;;;5031720;28;20108;-76
2023/07/10 08:05:37;;;;;;;3.63;3.33;;;30.20;99.90;;;;;;5031835;28;20123;-79
2023/07/10 08:08:06;;;;;;;4.43;3.67;;;30.30;99.90;;;;;;5033362;28;20035;-78
2023/07/10 08:10:36;;;;;;;3.65;3.08;;;30.50;99.90;;;;;;5033778;28;20142;-77
2023/07/10 08:13:03;;;;;;;3.85;2.90;;;30.80;98.60;;;;;;5033952;28;20056;-78
2023/07/10 08:15:30;;;;;;;4.13;3.03;;;30.90;97.60;;;;;;5033187;28;20021;-78
2023/07/10 08:17:55;;;;;;;5.85;3.33;;;31.10;97.10;;;;;;5035354;28;20022;-79
2023/07/10 08:20:21;;;;;;;4.40;3.03;;;31.20;95.90;;;;;;5038115;28;20634;-79
2023/07/10 08:22:46;;;;;;;5.75;3.05;;;31.40;95.90;;;;;;5036251;28;20029;-78
2023/07/10 08:25:12;;;;;;;4.70;3.92;;;31.50;95.80;;;;;;5037672;28;20052;-77
2023/07/10 08:27:38;;;;;;;4.78;3.60;;;31.60;94.60;;;;;;5036433;28;20387;-76
2023/07/10 08:30:04;;;;;;;5.43;3.15;;;31.60;94.30;;;;;;5034753;28;20025;-76
2023/07/10 08:32:30;;;;;;;4.18;3.10;;;31.10;94.10;;;;;;5037380;28;20052;-77
2023/07/10 08:34:55;;;;;;;3.58;2.90;;;31.70;94.50;;;;;;5031012;28;20497;-76
2023/07/10 08:37:21;;;;;;;6.82;3.30;;;31.50;93.40;;;;;;5032359;28;20429;-76
2023/07/10 08:39:48;;;;;;;5.45;3.97;;;31.30;93.10;;;;;;5034239;28;20049;-75
2023/07/10 08:42:19;;;;;;;3.35;2.88;;;32.00;94.30;;;;;;5035534;28;20067;-78
2023/07/10 08:44:49;;;;;;;4.10;3.47;;;31.60;92.80;;;;;;5035814;28;20027;-76
2023/07/10 08:47:28;;;;;;;5.03;3.75;;;31.60;92.80;;;;;;5036153;28;20038;-78
2023/07/10 08:50:00;;;;;;;4.35;3.42;;;31.60;93.20;;;;;;5036634;28;20101;-77
2023/07/10 08:53:01;;;;;;;3.20;2.90;;;31.80;93.30;;;;;;5036569;28;20101;-78
2023/07/10 08:55:36;;;;;;;4.53;3.15;;;32.30;91.90;;;;;;5034941;28;20071;-77
2023/07/10 08:58:02;;;;;;;3.95;3.47;;;32.10;91.40;;;;;;5036146;28;20551;-75
2023/07/10 09:00:35;;;;;;;2.88;2.65;;;32.00;91.80;;;;;;5035454;28;20104;-76
2023/07/10 09:03:15;;;;;;;3.72;3.20;;;31.30;92.30;;;;;;5036184;28;20025;-76
2023/07/10 09:05:47;;;;;;;5.15;3.75;;;32.10;93.50;;;;;;5036260;28;20048;-73
2023/07/10 09:08:14;;;;;;;5.13;3.33;;;32.10;92.80;;;;;;5035772;28;20109;-77
2023/07/10 09:10:50;;;;;;;5.43;3.75;;;32.00;89.10;;;;;;5035092;28;20076;-77
2023/07/10 09:13:27;;;;;;;5.88;3.25;;;32.20;91.90;;;;;;5035048;28;20025;-77
2023/07/10 09:15:56;;;;;;;3.88;3.28;;;32.50;91.00;;;;;;5035686;28;20394;-78
2023/07/10 09:18:30;;;;;;;3.30;2.67;;;33.00;91.80;;;;;;5035535;28;20029;-77
2023/07/10 09:21:06;;;;;;;4.68;3.10;;;33.30;90.40;;;;;;5034372;28;20359;-76
2023/07/10 09:23:33;;;;;;;4.32;3.40;;;32.70;91.30;;;;;;5034392;28;20113;-76
2023/07/10 09:26:10;;;;;;;4.15;3.60;;;32.80;90.80;;;;;;5036302;28;20048;-78
2023/07/10 09:28:39;;;;;;;3.72;2.83;;;32.80;90.90;;;;;;5035828;28;20032;-77
2023/07/10 09:31:08;;;;;;;3.63;2.90;;;32.90;89.70;;;;;;5034874;28;20028;-75
2023/07/10 09:33:58;;;;;;;3.17;2.85;;;33.10;89.00;;;;;;5035702;28;20026;-77
2023/07/10 09:36:24;;;;;;;3.17;2.53;;;33.10;90.40;;;;;;5035346;28;20029;-75
2023/07/10 09:38:52;;;;;;;4.80;2.72;;;33.10;85.50;;;;;;5034211;28;20025;-77
2023/07/10 09:41:27;;;;;;;3.70;3.22;;;33.10;86.70;;;;;;5035781;28;20414;-78
2023/07/10 09:44:13;;;;;;;2.85;2.55;;;33.20;83.70;;;;;;5035092;28;20441;-77
2023/07/10 09:46:39;;;;;;;3.03;2.50;;;33.10;81.90;;;;;;5035797;28;20022;-76
2023/07/10 09:49:23;;;;;;;3.22;2.63;;;33.20;83.80;;;;;;5035384;28;20144;-74
2023/07/10 09:52:00;;;;;;;3.50;2.70;;;33.30;79.90;;;;;;5034452;28;20033;-75
2023/07/10 09:54:37;;;;;;;3.78;2.97;;;33.30;84.30;;;;;;5035105;28;20118;-78
2023/07/10 09:57:14;;;;;;;3.92;2.83;;;33.60;85.60;;;;;;5035431;28;20064;-76
2023/07/10 09:59:47;;;;;;;5.75;2.70;;;33.70;85.50;;;;;;5035232;28;20386;-77
2023/07/10 10:02:34;;;;;;;3.40;2.75;;;33.70;78.40;;;;;;5035403;28;20033;-78
2023/07/10 10:05:10;;;;;;;3.20;2.85;;;33.70;77.80;;;;;;5035152;28;20026;-77
2023/07/10 10:07:38;;;;;;;5.65;2.83;;;33.60;81.50;;;;;;5034487;28;20025;-78
2023/07/10 10:10:21;;;;;;;3.10;2.25;;;33.70;79.60;;;;;;5034183;28;20056;-78
2023/07/10 10:13:12;;;;;;;5.22;3.60;;;33.50;78.20;;;;;;5034073;28;20116;-77
2023/07/10 10:16:15;;;;;;;3.78;3.10;;;33.70;84.60;;;;;;5034914;28;20479;-78
2023/07/10 10:18:45;;;;;;;4.10;3.05;;;33.80;84.40;;;;;;5028077;28;20405;-77
2023/07/10 10:21:16;;;;;;;2.80;2.45;;;34.10;83.60;;;;;;5034578;28;20040;-77
2023/07/10 10:23:47;;;;;;;3.40;3.08;;;34.10;80.80;;;;;;5034951;28;20079;-77
2023/07/10 10:26:41;;;;;;;4.15;2.60;;;34.30;81.80;;;;;;5034812;28;20108;-78
2023/07/10 10:29:33;;;;;;;3.28;2.78;;;34.40;78.80;;;;;;5032361;28;20021;-76
2023/07/10 10:32:24;;;;;;;3.20;2.45;;;34.30;79.30;;;;;;5032324;28;20491;-77
2023/07/10 10:35:25;;;;;;;3.50;2.72;;;34.10;79.00;;;;;;5033081;28;20088;-77
2023/07/10 10:38:12;;;;;;;5.47;3.17;;;34.10;79.50;;;;;;5032523;28;20021;-75
2023/07/10 10:41:10;;;;;;;3.70;3.20;;;34.20;80.50;;;;;;5032615;28;20552;-75
2023/07/10 10:44:08;;;;;;;3.33;3.03;;;34.30;77.40;;;;;;5033235;28;20085;-77
2023/07/10 10:46:42;;;;;;;3.78;2.70;;;34.40;78.70;;;;;;5029790;28;20508;-75
2023/07/10 10:49:20;;;;;;;;;;;34.40;77.80;;;;;;5034760;28;20485;-77
2023/07/10 10:51:56;;;;;;;2.88;2.50;;;34.60;74.30;;;;;;5034801;28;19960;-78
2023/07/10 10:54:40;;;;;;;3.22;2.28;;;34.90;72.60;;;;;;5034279;28;20029;-78
2023/07/10 10:57:35;;;;;;;3.42;2.53;;;34.90;73.40;;;;;;5034539;28;20013;-77
2023/07/10 11:00:30;;;;;;;6.20;2.50;;;34.90;72.60;;;;;;5029048;28;20533;-76
2023/07/10 11:03:04;;;;;;;4.28;2.80;;;35.00;72.40;;;;;;5034382;28;20068;-78
2023/07/10 11:05:42;;;;;;;;;;;35.00;73.20;;;;;;5034761;28;20079;-76
2023/07/10 11:08:16;;;;;;;4.90;2.83;;;35.00;73.20;;;;;;5032895;28;19955;-76
2023/07/10 11:10:43;;;;;;;5.03;3.10;;;35.00;72.20;;;;;;5032800;28;20076;-77
2023/07/10 11:13:34;;;;;;;3.97;2.67;;;35.10;71.40;;;;;;5032729;28;20037;-78
2023/07/10 11:16:05;;;;;;;3.15;2.78;;;35.40;71.30;;;;;;5033496;28;20030;-78
2023/07/10 11:18:33;;;;;;;3.03;2.70;;;35.40;67.70;;;;;;5033884;28;20018;-78
2023/07/10 11:21:01;;;;;;;4.15;2.78;;;35.50;66.90;;;;;;5033974;28;20033;-78
2023/07/10 11:23:50;;;;;;;2.72;2.15;;;35.40;66.80;;;;;;5032933;28;20083;-78
2023/07/10 11:26:22;;;;;;;2.63;2.35;;;35.10;39.20;;;;;;5033560;28;20021;-78
2023/07/10 11:28:58;;;;;;;2.33;2.03;;;35.20;40.40;;;;;;5032864;28;20021;-77
2023/07/10 11:31:30;;;;;;;4.22;2.75;;;35.20;40.80;;;;;;5033306;28;20021;-77
2023/07/10 11:34:19;;;;;;;3.22;2.92;;;35.10;41.10;;;;;;5032367;28;20109;-76
2023/07/10 11:36:46;;;;;;;7.45;2.85;;;35.20;40.20;;;;;;5027601;28;20536;-78
2023/07/10 11:39:30;;;;;;;5.78;2.85;;;35.20;42.80;;;;;;5033883;28;20017;-77
2023/07/10 11:41:56;;;;;;;2.80;2.00;;;35.30;43.20;;;;;;5032180;28;20022;-75
2023/07/10 11:44:33;;;;;;;3.35;2.78;;;35.30;42.80;;;;;;5033641;28;20049;-75
2023/07/10 11:47:05;;;;;;;4.13;3.17;;;35.10;45.00;;;;;;5033237;28;20057;-77
2023/07/10 11:49:40;;;;;;;5.25;3.25;;;35.10;43.50;;;;;;5032159;28;20036;-78
2023/07/10 11:52:14;;;;;;;;;;;35.20;43.60;;;;;;5034404;28;20025;-76
2023/07/10 11:54:42;;;;;;;3.30;2.53;;;35.10;44.50;;;;;;5052647;28;19909;-76
2023/07/10 11:57:08;;;;;;;16.80;2.83;;;35.20;43.10;;;;;;5037058;28;20041;-78
2023/07/10 11:59:35;;;;;;;5.05;2.50;;;35.20;44.10;;;;;;5037632;28;20088;-76
2023/07/10 12:02:01;;;;;;;2.35;2.10;;;35.30;45.40;;;;;;5035811;28;20124;-77
2023/07/10 12:04:27;;;;;;;2.70;2.47;;;35.30;42.20;;;;;;5038145;28;20057;-74
2023/07/10 12:06:57;;;;;;;4.25;3.00;;;35.20;44.00;;;;;;5036474;28;20025;-78
2023/07/10 12:09:22;;;;;;;3.03;2.75;;;35.30;43.30;;;;;;5037045;28;20466;-77
2023/07/10 12:11:54;;;;;;;2.35;2.15;;;35.30;44.50;;;;;;5036416;28;20021;-77
2023/07/10 12:14:19;;;;;;;3.88;2.67;;;35.40;46.00;;;;;;5036447;28;20025;-77
2023/07/10 12:16:53;;;;;;;3.08;2.65;;;35.30;43.90;;;;;;5036553;28;20022;-77
2023/07/10 12:19:25;;;;;;;4.30;2.45;;;35.20;42.90;;;;;;5036916;28;20037;-77
2023/07/10 12:21:51;;;;;;;3.08;2.60;;;35.30;42.60;;;;;;5023731;22;20046;-79
2023/07/10 12:24:17;;;;;;;3.80;3.00;;;35.20;40.70;;;;;;4996601;28;20031;-78
2023/07/10 12:26:49;;;;;;;4.72;2.55;;;35.30;42.30;;;;;;4995580;28;20022;-78
2023/07/10 12:29:15;;;;;;;3.03;2.40;;;35.10;41.10;;;;;;4994877;28;20037;-79
2023/07/10 12:31:42;;;;;;;3.15;2.78;;;35.10;41.60;;;;;;4995683;28;20027;-80
2023/07/10 12:34:34;;;;;;;3.83;2.70;;;35.10;41.60;;;;;;4998312;28;20026;-79
2023/07/10 12:37:00;;;;;;;2.63;2.42;;;35.30;41.60;;;;;;4994172;28;20120;-79
2023/07/10 12:39:26;;;;;;;2.90;2.50;;;35.50;42.00;;;;;;4995884;28;20026;-79
2023/07/10 12:41:54;;;;;;;2.58;2.38;;;35.60;40.30;;;;;;4998648;28;20102;-79
2023/07/10 12:44:26;;;;;;;5.28;3.15;;;35.30;40.40;;;;;;4998139;28;20019;-80
2023/07/10 12:47:04;;;;;;;3.05;2.40;;;35.40;41.40;;;;;;4998542;28;20046;-79
2023/07/10 12:49:32;;;;;;;4.18;2.17;;;35.70;41.00;;;;;;4998852;28;20030;-79
2023/07/10 12:51:59;;;;;;;3.72;3.40;;;35.90;40.80;;;;;;4999595;28;20022;-78
2023/07/10 12:54:32;;;;;;;2.60;2.40;;;36.00;41.80;;;;;;4997491;28;20390;-79
2023/07/10 12:56:58;;;;;;;4.55;2.47;;;35.80;45.10;;;;;;4998560;28;20383;-79
2023/07/10 12:59:35;;;;;;;3.50;2.47;;;35.60;44.40;;;;;;4998571;28;20022;-80
2023/07/10 13:02:17;;;;;;;2.08;1.88;;;35.50;42.30;;;;;;4996809;28;20019;-79